createdAt,value
2018-06-29T00:00:58.755Z,99.99
2018-06-29T00:01:58.753Z,99.99
2018-06-29T00:02:58.794Z,99.99
2018-06-29T00:03:58.772Z,99.99
2018-06-29T00:04:58.816Z,99.99
2018-06-29T00:05:58.811Z,99.99
2018-06-29T00:06:58.819Z,99.99
2018-06-29T00:07:58.804Z,99.99
2018-06-29T00:08:58.809Z,99.99
2018-06-29T00:09:58.811Z,99.99
2018-06-29T00:10:58.834Z,99.99
2018-06-29T00:11:58.824Z,99.99
2018-06-29T00:12:58.861Z,99.99
2018-06-29T00:13:58.799Z,99.99
2018-06-29T00:14:58.838Z,99.99
2018-06-29T00:15:58.837Z,99.99
2018-06-29T00:16:58.889Z,99.99
2018-06-29T00:17:58.855Z,99.99
2018-06-29T00:18:58.801Z,99.99
2018-06-29T00:19:58.805Z,99.99
2018-06-29T00:20:58.861Z,99.99
2018-06-29T00:21:58.793Z,99.99
2018-06-29T00:22:58.809Z,99.99
2018-06-29T00:23:58.812Z,99.99
2018-06-29T00:24:58.830Z,99.99
2018-06-29T00:25:58.815Z,99.99
2018-06-29T00:26:58.931Z,99.99
2018-06-29T00:27:58.848Z,99.99
2018-06-29T00:28:58.827Z,99.99
2018-06-29T00:29:58.834Z,99.99
2018-06-29T00:30:58.826Z,99.99
2018-06-29T00:31:58.847Z,99.99
2018-06-29T00:32:58.858Z,99.99
2018-06-29T00:33:58.859Z,99.99
2018-06-29T00:34:58.874Z,99.99
2018-06-29T00:35:58.886Z,99.99
2018-06-29T00:36:58.852Z,99.99
2018-06-29T00:37:58.836Z,99.99
2018-06-29T00:38:58.849Z,99.99
2018-06-29T00:39:58.858Z,99.99
2018-06-29T00:40:58.900Z,99.99
2018-06-29T00:41:58.868Z,99.99
2018-06-29T00:42:58.885Z,99.99
2018-06-29T00:43:58.891Z,99.99
2018-06-29T00:44:58.869Z,99.99
2018-06-29T00:45:58.895Z,99.99
2018-06-29T00:46:58.964Z,99.99
2018-06-29T00:47:58.891Z,99.99
2018-06-29T00:48:58.914Z,99.99
2018-06-29T00:49:58.905Z,99.99
2018-06-29T00:50:58.894Z,99.99
2018-06-29T00:51:58.891Z,99.99
2018-06-29T00:52:58.924Z,99.99
2018-06-29T00:53:58.926Z,99.99
2018-06-29T00:54:58.929Z,99.99
2018-06-29T00:55:58.939Z,99.99
2018-06-29T00:56:58.933Z,99.99
2018-06-29T00:57:58.917Z,99.99
2018-06-29T00:58:58.910Z,99.99
2018-06-29T00:59:58.906Z,99.99
2018-06-29T01:00:59.076Z,99.99
2018-06-29T01:01:58.946Z,99.99
2018-06-29T01:02:58.941Z,99.99
2018-06-29T01:03:58.977Z,99.99
2018-06-29T01:04:59.054Z,99.99
2018-06-29T01:05:58.965Z,99.99
2018-06-29T01:06:58.996Z,99.99
2018-06-29T01:07:58.969Z,99.99
2018-06-29T01:08:58.952Z,99.99
2018-06-29T01:09:58.981Z,99.99
2018-06-29T01:10:58.959Z,99.99
2018-06-29T01:11:58.954Z,99.99
2018-06-29T01:12:59.005Z,99.99
2018-06-29T01:13:58.978Z,99.99
2018-06-29T01:14:59.003Z,99.99
2018-06-29T01:15:58.988Z,99.99
2018-06-29T01:16:58.981Z,99.99
2018-06-29T01:17:58.988Z,99.99
2018-06-29T01:18:59.786Z,99.99
2018-06-29T01:19:58.977Z,99.99
2018-06-29T01:20:58.997Z,99.99
2018-06-29T01:21:58.987Z,99.99
2018-06-29T01:22:58.976Z,99.99
2018-06-29T01:23:58.976Z,99.99
2018-06-29T01:24:59.043Z,99.99
2018-06-29T01:25:58.997Z,99.99
2018-06-29T01:26:59.030Z,99.99
2018-06-29T01:27:59.017Z,99.99
2018-06-29T01:28:58.990Z,99.99
2018-06-29T01:29:58.998Z,99.99
2018-06-29T01:30:59.001Z,99.99
2018-06-29T01:31:59.009Z,99.99
2018-06-29T01:32:59.018Z,99.99
2018-06-29T01:33:59.007Z,99.99
2018-06-29T01:34:59.065Z,99.99
2018-06-29T01:35:59.102Z,99.99
2018-06-29T01:36:59.029Z,99.99
2018-06-29T01:37:59.022Z,99.99
2018-06-29T01:38:59.023Z,99.99
2018-06-29T01:39:59.051Z,99.99
2018-06-29T01:40:59.111Z,99.99
2018-06-29T01:41:59.067Z,99.99
2018-06-29T01:42:59.035Z,99.99
2018-06-29T01:43:59.073Z,99.99
2018-06-29T01:44:59.052Z,99.99
2018-06-29T01:45:59.053Z,99.99
2018-06-29T01:46:59.073Z,99.99
2018-06-29T01:47:59.054Z,99.99
2018-06-29T01:48:59.083Z,99.99
2018-06-29T01:49:59.095Z,99.99
2018-06-29T01:52:51.194Z,99.99
2018-06-29T01:53:34.169Z,99.99
2018-06-29T01:54:31.353Z,99.99
2018-06-29T01:55:31.342Z,99.99
2018-06-29T01:56:31.317Z,99.99
2018-06-29T01:57:31.327Z,99.99
2018-06-29T01:58:31.342Z,99.99
2018-06-29T01:59:31.336Z,99.99
2018-06-29T02:00:31.336Z,99.99
2018-06-29T02:01:31.360Z,99.99
2018-06-29T02:02:31.362Z,99.99
2018-06-29T02:03:31.363Z,99.99
2018-06-29T02:04:31.353Z,99.99
2018-06-29T02:05:31.359Z,99.99
2018-06-29T02:06:31.338Z,99.99
2018-06-29T02:07:31.387Z,99.99
2018-06-29T02:08:31.353Z,99.99
2018-06-29T02:09:31.397Z,99.99
2018-06-29T02:10:31.405Z,99.99
2018-06-29T02:11:31.356Z,99.99
2018-06-29T02:12:31.366Z,99.99
2018-06-29T02:13:31.442Z,99.99
2018-06-29T02:14:31.362Z,99.99
2018-06-29T02:15:31.431Z,99.99
2018-06-29T02:16:31.408Z,99.99
2018-06-29T02:17:31.550Z,99.99
2018-06-29T02:18:31.390Z,99.99
2018-06-29T02:19:31.414Z,99.99
2018-06-29T02:20:31.398Z,99.99
2018-06-29T02:21:31.435Z,99.99
2018-06-29T02:22:31.396Z,99.99
2018-06-29T02:23:31.400Z,99.99
2018-06-29T02:24:31.427Z,99.99
2018-06-29T02:25:31.427Z,99.99
2018-06-29T02:26:31.429Z,99.99
2018-06-29T02:27:31.483Z,99.99
2018-06-29T02:28:31.440Z,99.99
2018-06-29T02:29:31.427Z,99.99
2018-06-29T02:30:31.441Z,99.99
2018-06-29T02:31:31.452Z,99.99
2018-06-29T02:32:31.483Z,99.99
2018-06-29T02:33:31.455Z,99.99
2018-06-29T02:34:31.430Z,99.99
2018-06-29T02:35:31.472Z,99.99
2018-06-29T02:36:31.471Z,99.99
2018-06-29T02:37:31.445Z,99.99
2018-06-29T02:38:31.473Z,99.99
2018-06-29T02:39:31.437Z,99.99
2018-06-29T02:40:31.453Z,99.99
2018-06-29T02:41:31.443Z,99.99
2018-06-29T02:42:31.445Z,99.99
2018-06-29T02:43:31.480Z,99.99
2018-06-29T02:44:31.474Z,99.99
2018-06-29T02:45:31.512Z,99.99
2018-06-29T02:46:31.502Z,99.99
2018-06-29T02:47:31.518Z,99.99
2018-06-29T02:48:31.477Z,99.99
2018-06-29T02:49:31.512Z,99.99
2018-06-29T02:50:31.568Z,99.99
2018-06-29T02:51:31.558Z,99.99
2018-06-29T02:52:31.540Z,99.99
2018-06-29T02:53:31.473Z,99.99
2018-06-29T02:54:31.475Z,99.99
2018-06-29T02:55:31.485Z,99.99
2018-06-29T02:56:31.517Z,99.99
2018-06-29T02:57:31.531Z,99.99
2018-06-29T02:58:31.528Z,99.99
2018-06-29T02:59:31.527Z,99.99
2018-06-29T03:00:31.511Z,99.99
2018-06-29T03:01:31.506Z,99.99
2018-06-29T03:02:31.550Z,99.99
2018-06-29T03:03:31.512Z,99.99
2018-06-29T03:04:31.510Z,99.99
2018-06-29T03:05:31.538Z,99.99
2018-06-29T03:06:31.550Z,99.99
2018-06-29T03:07:31.525Z,99.99
2018-06-29T03:08:31.528Z,99.99
2018-06-29T03:09:31.556Z,99.99
2018-06-29T03:10:31.518Z,99.99
2018-06-29T03:11:31.543Z,99.99
2018-06-29T03:12:31.553Z,99.99
2018-06-29T03:13:31.533Z,99.99
2018-06-29T03:14:31.533Z,99.99
2018-06-29T03:15:31.549Z,99.99
2018-06-29T03:16:31.535Z,99.99
2018-06-29T03:17:31.542Z,99.99
2018-06-29T03:18:31.560Z,99.99
2018-06-29T03:19:31.582Z,99.99
2018-06-29T03:20:31.541Z,99.99
2018-06-29T03:21:31.647Z,99.99
2018-06-29T03:22:31.566Z,99.99
2018-06-29T03:23:31.560Z,99.99
2018-06-29T03:24:31.584Z,99.99
2018-06-29T03:25:31.560Z,99.99
2018-06-29T03:26:31.566Z,99.99
2018-06-29T03:27:31.569Z,99.99
2018-06-29T03:28:31.584Z,99.99
2018-06-29T03:29:31.572Z,99.99
2018-06-29T03:30:31.587Z,99.99
2018-06-29T03:31:31.604Z,99.99
2018-06-29T03:32:31.589Z,99.99
2018-06-29T03:33:31.597Z,99.99
2018-06-29T03:34:31.618Z,99.99
2018-06-29T03:35:31.604Z,99.99
2018-06-29T03:36:31.597Z,99.99
2018-06-29T03:37:31.594Z,99.99
2018-06-29T03:38:31.590Z,99.99
2018-06-29T03:39:31.585Z,99.99
2018-06-29T03:40:31.666Z,99.99
2018-06-29T03:41:31.615Z,99.99
2018-06-29T03:42:31.625Z,99.99
2018-06-29T03:43:31.610Z,99.99
2018-06-29T03:44:31.627Z,99.99
2018-06-29T03:45:31.644Z,99.99
2018-06-29T03:46:31.621Z,99.99
2018-06-29T03:47:31.623Z,99.99
2018-06-29T03:48:31.623Z,99.99
2018-06-29T03:49:31.763Z,99.99
2018-06-29T03:50:31.677Z,99.99
2018-06-29T03:51:31.650Z,99.99
2018-06-29T03:52:31.644Z,99.99
2018-06-29T03:53:31.632Z,99.99
2018-06-29T03:54:31.643Z,99.99
2018-06-29T03:55:31.636Z,99.99
2018-06-29T03:56:31.633Z,99.99
2018-06-29T03:57:31.678Z,99.99
2018-06-29T03:58:31.656Z,99.99
2018-06-29T03:59:31.643Z,99.99
2018-06-29T04:00:31.668Z,99.99
2018-06-29T04:01:31.648Z,99.99
2018-06-29T04:02:31.702Z,99.99
2018-06-29T04:03:31.656Z,99.99
2018-06-29T04:04:31.683Z,99.99
2018-06-29T04:05:31.706Z,99.99
2018-06-29T04:06:31.662Z,99.99
2018-06-29T04:07:31.678Z,99.99
2018-06-29T04:08:31.690Z,99.99
2018-06-29T04:09:31.667Z,99.99
2018-06-29T04:10:31.677Z,99.99
2018-06-29T04:11:31.693Z,99.99
2018-06-29T04:12:31.706Z,99.99
2018-06-29T04:13:31.701Z,99.99
2018-06-29T04:14:31.707Z,99.99
2018-06-29T04:15:31.708Z,99.99
2018-06-29T04:16:31.717Z,99.99
2018-06-29T04:17:31.702Z,99.99
2018-06-29T04:18:31.712Z,99.99
2018-06-29T04:19:31.693Z,99.99
2018-06-29T04:20:31.722Z,99.99
2018-06-29T04:21:31.720Z,99.99
2018-06-29T04:22:31.694Z,99.99
2018-06-29T04:23:31.736Z,99.99
2018-06-29T04:24:31.708Z,99.99
2018-06-29T04:25:31.726Z,99.99
2018-06-29T04:26:31.760Z,99.99
2018-06-29T04:27:31.724Z,99.99
2018-06-29T04:28:31.732Z,99.99
2018-06-29T04:29:31.795Z,99.99
2018-06-29T04:30:31.725Z,99.99
2018-06-29T04:31:31.752Z,99.99
2018-06-29T04:32:31.746Z,99.99
2018-06-29T04:33:31.739Z,99.99
2018-06-29T04:34:31.763Z,99.99
2018-06-29T04:35:31.764Z,99.99
2018-06-29T04:36:31.782Z,99.99
2018-06-29T04:37:31.758Z,99.99
2018-06-29T04:38:31.758Z,99.99
2018-06-29T04:39:32.699Z,99.99
2018-06-29T04:40:31.742Z,99.99
2018-06-29T04:41:31.740Z,99.99
2018-06-29T04:42:31.763Z,99.99
2018-06-29T04:43:31.755Z,99.99
2018-06-29T04:44:31.760Z,99.99
2018-06-29T04:45:31.768Z,99.99
2018-06-29T04:46:31.788Z,99.99
2018-06-29T04:47:31.775Z,99.99
2018-06-29T04:48:31.768Z,99.99
2018-06-29T04:49:31.766Z,99.99
2018-06-29T04:50:31.838Z,99.99
2018-06-29T04:51:31.784Z,99.99
2018-06-29T04:52:31.798Z,99.99
2018-06-29T04:53:31.790Z,99.99
2018-06-29T04:54:31.802Z,99.99
2018-06-29T04:55:31.811Z,99.99
2018-06-29T04:56:31.817Z,99.99
2018-06-29T04:57:31.813Z,99.99
2018-06-29T04:58:31.819Z,99.99
2018-06-29T04:59:31.829Z,99.99
2018-06-29T05:00:31.819Z,99.99
2018-06-29T05:01:31.841Z,99.99
2018-06-29T05:02:31.870Z,99.99
2018-06-29T05:03:31.799Z,99.99
2018-06-29T05:04:31.957Z,99.99
2018-06-29T05:05:31.854Z,99.99
2018-06-29T05:06:31.818Z,99.99
2018-06-29T05:07:31.894Z,99.99
2018-06-29T05:08:31.811Z,99.99
2018-06-29T05:09:31.818Z,99.99
2018-06-29T05:10:31.896Z,99.99
2018-06-29T05:11:31.828Z,99.99
2018-06-29T05:12:31.831Z,99.99
2018-06-29T05:13:31.843Z,98.68
2018-06-29T05:14:31.868Z,93.95
2018-06-29T05:15:31.892Z,92.01
2018-06-29T05:16:31.864Z,89.29
2018-06-29T05:17:31.870Z,87.21
2018-06-29T05:18:31.875Z,84.74
2018-06-29T05:19:31.901Z,83.58
2018-06-29T05:20:31.878Z,83.96
2018-06-29T05:21:31.892Z,84.16
2018-06-29T05:22:31.864Z,82.65
2018-06-29T05:23:31.883Z,82.55
2018-06-29T05:24:31.887Z,81.72
2018-06-29T05:25:31.882Z,81.00
2018-06-29T05:26:31.871Z,80.85
2018-06-29T05:27:31.875Z,79.82
2018-06-29T05:28:32.760Z,79.43
2018-06-29T05:29:31.932Z,79.37
2018-06-29T05:30:31.891Z,78.11
2018-06-29T05:31:31.902Z,78.11
2018-06-29T05:32:31.904Z,79.04
2018-06-29T05:33:31.969Z,79.55
2018-06-29T05:34:31.983Z,82.03
2018-06-29T05:35:31.911Z,81.58
2018-06-29T05:36:31.922Z,81.39
2018-06-29T05:37:31.935Z,82.70
2018-06-29T05:38:31.935Z,82.76
2018-06-29T05:39:31.948Z,84.21
2018-06-29T05:40:31.999Z,83.73
2018-06-29T05:41:32.049Z,83.48
2018-06-29T05:42:31.968Z,81.91
2018-06-29T05:43:31.997Z,80.26
2018-06-29T05:44:32.116Z,79.97
2018-06-29T05:45:31.977Z,79.33
2018-06-29T05:46:31.990Z,78.11
2018-06-29T05:47:31.988Z,77.57
2018-06-29T05:48:32.030Z,76.15
2018-06-29T05:49:32.060Z,75.02
2018-06-29T05:50:32.084Z,74.67
2018-06-29T05:51:32.035Z,74.32
2018-06-29T05:52:32.050Z,72.86
2018-06-29T05:53:32.014Z,71.14
2018-06-29T05:54:32.043Z,71.50
2018-06-29T05:55:32.045Z,71.30
2018-06-29T05:56:32.053Z,74.88
2018-06-29T05:57:32.197Z,74.34
2018-06-29T05:58:32.065Z,74.18
2018-06-29T05:59:32.144Z,72.82
2018-06-29T06:00:32.096Z,71.98
2018-06-29T06:01:32.162Z,70.20
2018-06-29T06:02:32.175Z,71.14
2018-06-29T06:03:32.129Z,72.11
2018-06-29T06:04:32.212Z,73.37
2018-06-29T06:05:32.168Z,73.99
2018-06-29T06:06:32.216Z,71.75
2018-06-29T06:07:32.135Z,73.56
2018-06-29T06:08:32.154Z,73.75
2018-06-29T06:09:32.150Z,72.96
2018-06-29T06:10:32.168Z,71.23
2018-06-29T06:11:32.242Z,70.30
2018-06-29T06:12:32.297Z,68.80
2018-06-29T06:13:32.950Z,69.71
2018-06-29T06:14:32.314Z,71.33
2018-06-29T06:15:33.002Z,72.43
2018-06-29T06:16:32.275Z,72.89
2018-06-29T06:17:32.262Z,70.98
2018-06-29T06:18:32.272Z,70.17
2018-06-29T06:19:32.289Z,70.07
2018-06-29T06:20:32.319Z,69.78
2018-06-29T06:21:32.319Z,68.39
2018-06-29T06:22:32.424Z,67.86
2018-06-29T06:23:32.326Z,67.51
2018-06-29T06:24:32.457Z,67.90
2018-06-29T06:25:32.441Z,67.38
2018-06-29T06:26:32.371Z,65.88
2018-06-29T06:27:32.394Z,65.88
2018-06-29T06:28:32.438Z,65.23
2018-06-29T06:29:32.477Z,64.26
2018-06-29T06:30:32.435Z,65.04
2018-06-29T06:31:32.494Z,65.33
2018-06-29T06:32:32.397Z,65.07
2018-06-29T06:33:32.441Z,65.43
2018-06-29T06:34:32.458Z,65.78
2018-06-29T06:35:32.440Z,65.92
2018-06-29T06:36:32.448Z,66.93
2018-06-29T06:37:32.529Z,66.96
2018-06-29T06:38:32.830Z,67.22
2018-06-29T06:39:33.297Z,67.57
2018-06-29T06:40:32.532Z,67.86
2018-06-29T06:41:32.481Z,65.88
2018-06-29T06:42:32.497Z,65.39
2018-06-29T06:43:32.622Z,64.87
2018-06-29T06:44:32.593Z,64.09
2018-06-29T06:45:32.601Z,63.96
2018-06-29T06:46:32.582Z,64.36
2018-06-29T06:47:32.595Z,65.33
2018-06-29T06:48:33.553Z,64.39
2018-06-29T06:49:32.658Z,63.64
2018-06-29T06:50:35.400Z,63.34
2018-06-29T06:51:32.957Z,61.51
2018-06-29T06:52:32.899Z,61.97
2018-06-29T06:53:32.737Z,62.29
2018-06-29T06:54:32.833Z,62.39
2018-06-29T06:55:32.821Z,63.18
2018-06-29T06:56:34.402Z,65.04
2018-06-29T06:57:33.773Z,65.00
2018-06-29T06:58:32.791Z,64.16
2018-06-29T06:59:32.836Z,64.32
2018-06-29T07:00:32.832Z,63.31
2018-06-29T07:01:33.663Z,63.60
2018-06-29T07:02:33.769Z,62.89
2018-06-29T07:03:34.331Z,63.73
2018-06-29T07:04:33.176Z,61.83
2018-06-29T07:05:35.414Z,61.74
2018-06-29T07:06:32.971Z,61.41
2018-06-29T07:07:32.934Z,60.13
2018-06-29T07:08:33.695Z,61.47
2018-06-29T07:09:33.916Z,61.64
2018-06-29T07:10:33.020Z,61.87
2018-06-29T07:11:32.928Z,62.79
2018-06-29T07:12:33.000Z,61.08
2018-06-29T07:13:33.039Z,60.47
2018-06-29T07:14:33.237Z,59.59
2018-06-29T07:15:33.050Z,60.05
2018-06-29T07:16:33.035Z,61.87
2018-06-29T07:17:33.064Z,62.66
2018-06-29T07:18:33.088Z,62.13
2018-06-29T07:19:33.241Z,62.66
2018-06-29T07:20:33.139Z,63.37
2018-06-29T07:21:33.077Z,61.94
2018-06-29T07:22:33.786Z,62.26
2018-06-29T07:23:33.179Z,61.15
2018-06-29T07:24:33.641Z,60.52
2018-06-29T07:25:33.250Z,58.54
2018-06-29T07:26:33.211Z,59.52
2018-06-29T07:27:33.917Z,59.91
2018-06-29T07:28:33.204Z,62.00
2018-06-29T07:29:34.857Z,61.71
2018-06-29T07:30:33.302Z,61.22
2018-06-29T07:31:34.495Z,60.10
2018-06-29T07:32:35.084Z,61.68
2018-06-29T07:33:33.326Z,60.24
2018-06-29T07:34:33.316Z,61.91
2018-06-29T07:35:33.432Z,62.07
2018-06-29T07:36:33.396Z,61.93
2018-06-29T07:37:33.371Z,60.13
2018-06-29T07:38:33.496Z,60.05
2018-06-29T07:39:33.451Z,61.25
2018-06-29T07:40:33.482Z,61.18
2018-06-29T07:41:33.371Z,60.86
2018-06-29T07:42:33.494Z,62.92
2018-06-29T07:43:33.452Z,60.03
2018-06-29T07:44:33.994Z,59.01
2018-06-29T07:45:33.567Z,58.14
2018-06-29T07:46:34.151Z,56.67
2018-06-29T07:47:33.616Z,60.17
2018-06-29T07:48:33.650Z,59.25
2018-06-29T07:49:33.593Z,57.54
2018-06-29T07:50:33.713Z,56.61
2018-06-29T07:51:34.486Z,57.76
2018-06-29T07:52:33.670Z,57.98
2018-06-29T07:53:33.681Z,57.42
2018-06-29T07:54:33.643Z,56.47
2018-06-29T07:55:33.699Z,57.10
2018-06-29T07:56:34.431Z,59.14
2018-06-29T07:57:33.708Z,59.85
2018-06-29T07:58:33.843Z,58.93
2018-06-29T07:59:33.834Z,59.03
2018-06-29T08:00:33.774Z,59.45
2018-06-29T08:01:33.825Z,59.25
2018-06-29T08:02:33.889Z,60.52
2018-06-29T08:03:33.844Z,57.68
2018-06-29T08:04:33.878Z,56.38
2018-06-29T08:05:33.896Z,57.22
2018-06-29T08:06:33.914Z,56.44
2018-06-29T08:07:34.036Z,56.34
2018-06-29T08:08:33.984Z,54.97
2018-06-29T08:09:34.119Z,55.22
2018-06-29T08:10:36.625Z,55.12
2018-06-29T08:11:33.996Z,55.61
2018-06-29T08:12:34.065Z,56.92
2018-06-29T08:13:34.042Z,56.26
2018-06-29T08:14:34.181Z,55.30
2018-06-29T08:15:34.079Z,54.22
2018-06-29T08:16:34.045Z,54.22
2018-06-29T08:17:34.117Z,54.41
2018-06-29T08:18:34.336Z,54.33
2018-06-29T08:19:34.225Z,55.18
2018-06-29T08:20:35.274Z,53.85
2018-06-29T08:21:34.203Z,52.86
2018-06-29T08:22:34.501Z,54.77
2018-06-29T08:23:34.365Z,55.92
2018-06-29T08:24:34.336Z,57.08
2018-06-29T08:25:34.346Z,57.11
2018-06-29T08:26:34.288Z,54.98
2018-06-29T08:27:34.370Z,54.41
2018-06-29T08:28:34.363Z,54.02
2018-06-29T08:29:34.305Z,54.64
2018-06-29T08:30:34.293Z,54.39
2018-06-29T08:31:34.378Z,54.57
2018-06-29T08:32:34.394Z,55.37
2018-06-29T08:33:34.493Z,56.27
2018-06-29T08:34:34.552Z,57.93
2018-06-29T08:35:34.496Z,56.69
2018-06-29T08:36:35.338Z,56.01
2018-06-29T08:37:34.519Z,56.27
2018-06-29T08:38:34.537Z,58.37
2018-06-29T08:39:34.563Z,57.35
2018-06-29T08:40:34.544Z,54.93
2018-06-29T08:41:34.612Z,53.60
2018-06-29T08:42:34.544Z,52.87
2018-06-29T08:43:34.697Z,51.91
2018-06-29T08:44:34.632Z,51.32
2018-06-29T08:45:35.353Z,50.19
2018-06-29T08:46:34.700Z,51.84
2018-06-29T08:47:34.749Z,50.39
2018-06-29T08:48:34.708Z,51.17
2018-06-29T08:49:34.776Z,51.45
2018-06-29T08:50:34.831Z,51.62
2018-06-29T08:51:34.845Z,52.81
2018-06-29T08:52:34.944Z,54.96
2018-06-29T08:53:34.972Z,56.02
2018-06-29T08:54:34.901Z,55.41
2018-06-29T08:55:35.018Z,55.85
2018-06-29T08:56:34.943Z,56.76
2018-06-29T08:57:34.989Z,56.98
2018-06-29T08:58:34.968Z,53.83
2018-06-29T08:59:34.967Z,52.58
2018-06-29T09:00:36.037Z,51.76
2018-06-29T09:08:09.815Z,54.19
2018-06-29T09:08:45.095Z,54.46
2018-06-29T09:09:45.035Z,54.60
2018-06-29T09:10:45.034Z,53.67
2018-06-29T09:11:45.051Z,53.45
2018-06-29T09:12:45.822Z,54.79
2018-06-29T09:13:45.145Z,54.48
2018-06-29T09:14:45.127Z,54.93
2018-06-29T09:15:45.168Z,52.92
2018-06-29T09:16:45.168Z,53.23
2018-06-29T09:17:45.212Z,53.09
2018-06-29T09:18:45.234Z,54.29
2018-06-29T09:19:45.236Z,52.94
2018-06-29T09:20:45.275Z,53.28
2018-06-29T09:21:45.281Z,52.69
2018-06-29T09:22:45.304Z,53.82
2018-06-29T09:23:45.826Z,53.65
2018-06-29T09:24:45.369Z,52.76
2018-06-29T09:25:45.369Z,52.35
2018-06-29T09:26:45.404Z,50.85
2018-06-29T09:27:45.506Z,48.20
2018-06-29T09:28:45.461Z,47.75
2018-06-29T09:29:45.492Z,47.19
2018-06-29T09:30:45.503Z,47.60
2018-06-29T09:31:45.521Z,48.00
2018-06-29T09:32:46.333Z,46.86
2018-06-29T09:33:45.575Z,46.39
2018-06-29T09:34:45.595Z,45.20
2018-06-29T09:35:46.336Z,44.71
2018-06-29T09:36:45.639Z,44.73
2018-06-29T09:37:45.680Z,44.69
2018-06-29T09:38:45.699Z,43.47
2018-06-29T09:47:31.547Z,46.87
2018-06-29T09:48:31.561Z,47.53
2018-06-29T09:50:24.447Z,49.08
2018-06-29T09:51:24.819Z,47.98
2018-06-29T09:52:24.050Z,49.29
2018-06-29T09:53:24.069Z,49.19
2018-06-29T09:54:24.137Z,49.41
2018-06-29T09:55:24.170Z,49.99
2018-06-29T09:56:24.157Z,49.31
2018-06-29T09:57:24.177Z,49.73
2018-06-29T09:58:24.213Z,50.02
2018-06-29T09:59:24.229Z,49.11
2018-06-29T10:00:24.256Z,49.80
2018-06-29T10:01:24.365Z,50.81
2018-06-29T10:02:24.320Z,49.80
2018-06-29T10:03:24.330Z,51.00
2018-06-29T10:04:24.350Z,49.73
2018-06-29T10:05:24.398Z,50.76
2018-06-29T10:06:24.447Z,49.38
2018-06-29T10:07:24.447Z,49.18
2018-06-29T10:08:24.450Z,49.33
2018-06-29T10:15:50.447Z,49.28
2018-06-29T10:16:34.982Z,47.28
2018-06-29T10:18:29.198Z,47.88
2018-06-29T10:19:30.099Z,48.00
2018-06-29T10:21:23.778Z,49.21
2018-06-29T10:22:23.809Z,49.62
2018-06-29T10:24:18.963Z,44.92
2018-06-29T10:25:18.640Z,45.86
2018-06-29T10:26:18.627Z,46.03
2018-06-29T10:27:18.672Z,47.92
2018-06-29T10:28:18.819Z,45.86
2018-06-29T10:29:20.407Z,47.14
2018-06-29T10:30:18.739Z,47.17
2018-06-29T10:31:18.737Z,48.65
2018-06-29T10:32:21.311Z,48.30
2018-06-29T10:33:18.827Z,47.51
2018-06-29T10:34:18.785Z,47.41
2018-06-29T10:35:18.842Z,47.51
2018-06-29T10:36:18.837Z,47.98
2018-06-29T10:37:19.666Z,47.27
2018-06-29T10:38:18.883Z,47.96
2018-06-29T10:39:18.906Z,48.55
2018-06-29T10:40:18.949Z,49.21
2018-06-29T10:41:18.969Z,49.60
2018-06-29T10:42:18.980Z,49.31
2018-06-29T10:43:19.045Z,49.85
2018-06-29T10:44:18.998Z,49.73
2018-06-29T10:45:19.891Z,51.10
2018-06-29T10:46:19.026Z,50.98
2018-06-29T10:47:22.668Z,51.86
2018-06-29T10:48:19.092Z,51.64
2018-06-29T10:49:19.151Z,52.30
2018-06-29T10:50:19.669Z,52.86
2018-06-29T10:51:19.120Z,51.66
2018-06-29T10:52:19.194Z,52.54
2018-06-29T10:53:19.153Z,52.32
2018-06-29T10:54:19.307Z,54.61
2018-06-29T10:55:19.209Z,55.20
2018-06-29T10:56:19.251Z,54.64
2018-06-29T10:57:19.345Z,53.37
2018-06-29T10:58:19.267Z,53.74
2018-06-29T10:59:20.497Z,54.22
2018-06-29T11:00:19.390Z,53.86
2018-06-29T11:01:19.460Z,54.71
2018-06-29T11:02:19.452Z,54.39
2018-06-29T11:03:20.274Z,53.42
2018-06-29T11:04:19.342Z,53.15
2018-06-29T11:05:19.445Z,53.83
2018-06-29T11:06:19.391Z,52.76
2018-06-29T11:07:19.407Z,53.54
2018-06-29T11:08:19.432Z,53.61
2018-06-29T11:09:19.454Z,54.22
2018-06-29T11:10:19.454Z,54.20
2018-06-29T11:11:19.447Z,54.39
2018-06-29T11:12:19.437Z,54.52
2018-06-29T11:13:19.598Z,54.71
2018-06-29T11:14:19.551Z,53.71
2018-06-29T11:15:19.827Z,55.18
2018-06-29T11:16:19.487Z,55.18
2018-06-29T11:17:19.498Z,55.10
2018-06-29T11:18:19.613Z,53.42
2018-06-29T11:19:19.554Z,52.44
2018-06-29T11:20:19.592Z,52.15
2018-06-29T11:21:19.559Z,52.90
2018-06-29T11:22:19.571Z,53.17
2018-06-29T11:23:19.616Z,53.34
2018-06-29T11:24:19.675Z,54.05
2018-06-29T11:25:19.609Z,55.63
2018-06-29T11:26:19.636Z,54.79
2018-06-29T11:27:19.620Z,53.52
2018-06-29T11:28:19.678Z,54.32
2018-06-29T11:29:19.643Z,52.47
2018-06-29T11:30:19.752Z,52.66
2018-06-29T11:31:19.680Z,53.54
2018-06-29T11:32:20.078Z,52.49
2018-06-29T11:33:19.703Z,52.56
2018-06-29T11:34:19.702Z,53.15
2018-06-29T11:35:19.843Z,52.80
2018-06-29T11:36:19.723Z,53.88
2018-06-29T11:37:19.782Z,53.09
2018-06-29T11:38:19.747Z,53.07
2018-06-29T11:39:19.798Z,52.61
2018-06-29T11:40:19.798Z,53.58
2018-06-29T11:41:19.836Z,53.78
2018-06-29T11:42:19.843Z,54.27
2018-06-29T11:43:19.866Z,53.46
2018-06-29T11:44:21.791Z,54.07
2018-06-29T11:45:19.878Z,52.22
2018-06-29T11:46:19.850Z,51.92
2018-06-29T11:47:19.899Z,52.22
2018-06-29T11:48:19.901Z,52.58
2018-06-29T11:49:19.960Z,54.24
2018-06-29T11:50:21.816Z,53.92
2018-06-29T11:51:20.010Z,53.97
2018-06-29T11:52:20.004Z,55.85
2018-06-29T11:53:19.906Z,55.68
2018-06-29T11:54:19.952Z,55.80
2018-06-29T11:55:20.040Z,55.90
2018-06-29T11:56:20.044Z,55.73
2018-06-29T11:57:20.007Z,57.23
2018-06-29T11:58:20.017Z,54.52
2018-06-29T11:59:19.999Z,54.61
2018-06-29T12:00:20.089Z,53.71
2018-06-29T12:01:20.028Z,53.88
2018-06-29T12:02:20.023Z,54.66
2018-06-29T12:03:20.008Z,54.36
2018-06-29T12:04:20.044Z,54.27
2018-06-29T12:05:20.078Z,56.84
2018-06-29T12:06:20.136Z,56.05
2018-06-29T12:07:20.805Z,56.37
2018-06-29T12:08:20.082Z,53.81
2018-06-29T12:09:20.136Z,55.76
2018-06-29T12:10:20.099Z,55.27
2018-06-29T12:11:20.121Z,56.35
2018-06-29T12:12:20.173Z,56.81
2018-06-29T12:13:20.138Z,56.51
2018-06-29T12:14:20.138Z,57.32
2018-06-29T12:15:20.136Z,56.84
2018-06-29T12:16:20.157Z,56.76
2018-06-29T12:17:20.189Z,56.18
2018-06-29T12:18:20.165Z,56.47
2018-06-29T12:19:20.239Z,54.49
2018-06-29T12:20:20.204Z,56.15
2018-06-29T12:21:20.199Z,56.35
2018-06-29T12:22:21.847Z,57.32
2018-06-29T12:23:21.385Z,56.54
2018-06-29T12:24:20.240Z,56.84
2018-06-29T12:25:20.252Z,57.42
2018-06-29T12:26:20.285Z,56.64
2018-06-29T12:27:20.268Z,56.08
2018-06-29T12:28:20.250Z,55.86
2018-06-29T12:29:20.319Z,55.76
2018-06-29T12:30:20.347Z,55.96
2018-06-29T12:31:20.352Z,56.74
2018-06-29T12:32:20.371Z,56.93
2018-06-29T12:33:20.457Z,57.23
2018-06-29T12:34:20.363Z,56.74
2018-06-29T12:35:20.345Z,57.52
2018-06-29T12:36:20.432Z,56.54
2018-06-29T12:37:20.375Z,55.83
2018-06-29T12:38:20.371Z,55.80
2018-06-29T12:39:20.348Z,56.46
2018-06-29T12:40:21.235Z,58.53
2018-06-29T12:41:21.235Z,58.63
2018-06-29T12:42:20.529Z,58.17
2018-06-29T12:43:20.439Z,56.81
2018-06-29T12:44:20.626Z,56.12
2018-06-29T12:45:20.462Z,55.83
2018-06-29T12:46:20.501Z,54.75
2018-06-29T12:47:20.460Z,56.02
2018-06-29T12:48:20.482Z,56.12
2018-06-29T12:49:20.491Z,55.93
2018-06-29T12:50:20.572Z,56.12
2018-06-29T12:51:20.512Z,56.41
2018-06-29T12:52:20.512Z,56.02
2018-06-29T12:53:20.562Z,55.44
2018-06-29T12:54:20.518Z,54.17
2018-06-29T12:55:20.641Z,54.56
2018-06-29T12:56:20.575Z,54.83
2018-06-29T12:57:20.781Z,56.68
2018-06-29T12:58:20.557Z,56.87
2018-06-29T12:59:20.557Z,56.38
2018-06-29T13:00:20.609Z,56.68
2018-06-29T13:01:20.581Z,57.00
2018-06-29T13:02:20.585Z,56.29
2018-06-29T13:03:20.585Z,56.38
2018-06-29T13:04:20.609Z,54.80
2018-06-29T13:05:20.640Z,56.04
2018-06-29T13:06:20.635Z,56.92
2018-06-29T13:07:20.626Z,55.85
2018-06-29T13:08:20.687Z,55.94
2018-06-29T13:09:20.825Z,56.23
2018-06-29T13:10:20.713Z,57.99
2018-06-29T13:11:20.662Z,56.75
2018-06-29T13:12:20.702Z,56.36
2018-06-29T13:13:20.695Z,55.80
2018-06-29T13:14:20.688Z,56.36
2018-06-29T13:15:20.691Z,55.87
2018-06-29T13:16:20.763Z,55.77
2018-06-29T13:17:20.770Z,55.94
2018-06-29T13:18:20.780Z,55.85